sensor_id;sensor_type;location;lat;lon;timestamp;temperature;humidity
21582;DHT22;10952;50.836;4.348;2022-08-14T00:00:13;26.30;65.30
21582;DHT22;10952;50.836;4.348;2022-08-14T00:02:40;26.30;65.20
21582;DHT22;10952;50.836;4.348;2022-08-14T00:05:09;26.20;65.50
21582;DHT22;10952;50.836;4.348;2022-08-14T00:07:35;26.00;66.00
21582;DHT22;10952;50.836;4.348;2022-08-14T00:10:04;25.80;66.30
21582;DHT22;10952;50.836;4.348;2022-08-14T00:12:32;25.70;66.50
21582;DHT22;10952;50.836;4.348;2022-08-14T00:14:58;25.60;67.00
21582;DHT22;10952;50.836;4.348;2022-08-14T00:17:25;25.50;67.10
21582;DHT22;10952;50.836;4.348;2022-08-14T00:19:52;25.40;67.20
21582;DHT22;10952;50.836;4.348;2022-08-14T00:22:18;25.30;67.30
21582;DHT22;10952;50.836;4.348;2022-08-14T00:24:44;25.30;67.50
21582;DHT22;10952;50.836;4.348;2022-08-14T00:27:10;25.30;67.70
21582;DHT22;10952;50.836;4.348;2022-08-14T00:29:36;25.20;67.70
21582;DHT22;10952;50.836;4.348;2022-08-14T00:32:02;25.30;67.50
21582;DHT22;10952;50.836;4.348;2022-08-14T00:34:28;25.30;67.40
21582;DHT22;10952;50.836;4.348;2022-08-14T00:36:53;25.30;67.10
21582;DHT22;10952;50.836;4.348;2022-08-14T00:39:19;25.30;67.00
21582;DHT22;10952;50.836;4.348;2022-08-14T00:41:46;25.30;67.00
21582;DHT22;10952;50.836;4.348;2022-08-14T00:44:13;25.40;66.90
21582;DHT22;10952;50.836;4.348;2022-08-14T00:46:39;25.30;66.90
21582;DHT22;10952;50.836;4.348;2022-08-14T00:49:06;25.30;66.70
21582;DHT22;10952;50.836;4.348;2022-08-14T00:51:33;25.30;66.60
21582;DHT22;10952;50.836;4.348;2022-08-14T00:54:00;25.40;66.50
21582;DHT22;10952;50.836;4.348;2022-08-14T00:56:27;25.30;66.20
21582;DHT22;10952;50.836;4.348;2022-08-14T00:58:53;25.30;66.20
21582;DHT22;10952;50.836;4.348;2022-08-14T01:01:20;25.30;66.40
21582;DHT22;10952;50.836;4.348;2022-08-14T01:03:46;25.30;66.40
21582;DHT22;10952;50.836;4.348;2022-08-14T01:06:13;25.30;66.40
21582;DHT22;10952;50.836;4.348;2022-08-14T01:08:43;25.30;66.20
21582;DHT22;10952;50.836;4.348;2022-08-14T01:11:11;25.30;66.00
21582;DHT22;10952;50.836;4.348;2022-08-14T01:13:43;25.30;65.90
21582;DHT22;10952;50.836;4.348;2022-08-14T01:16:17;25.30;65.90
21582;DHT22;10952;50.836;4.348;2022-08-14T01:18:45;25.20;66.00
21582;DHT22;10952;50.836;4.348;2022-08-14T01:21:35;25.20;66.10
21582;DHT22;10952;50.836;4.348;2022-08-14T01:24:01;25.20;66.00
21582;DHT22;10952;50.836;4.348;2022-08-14T01:26:27;25.10;66.00
21582;DHT22;10952;50.836;4.348;2022-08-14T01:28:55;25.10;66.00
21582;DHT22;10952;50.836;4.348;2022-08-14T01:31:37;25.10;66.00
21582;DHT22;10952;50.836;4.348;2022-08-14T01:34:09;25.10;66.00
21582;DHT22;10952;50.836;4.348;2022-08-14T01:36:35;25.20;66.00
21582;DHT22;10952;50.836;4.348;2022-08-14T01:39:08;25.20;65.40
21582;DHT22;10952;50.836;4.348;2022-08-14T01:41:36;25.30;65.40
21582;DHT22;10952;50.836;4.348;2022-08-14T01:44:07;25.30;65.30
21582;DHT22;10952;50.836;4.348;2022-08-14T01:46:38;25.30;65.40
21582;DHT22;10952;50.836;4.348;2022-08-14T01:49:07;25.20;65.70
21582;DHT22;10952;50.836;4.348;2022-08-14T01:51:34;25.10;65.90
21582;DHT22;10952;50.836;4.348;2022-08-14T01:54:04;25.10;66.30
21582;DHT22;10952;50.836;4.348;2022-08-14T01:56:32;25.10;66.30
21582;DHT22;10952;50.836;4.348;2022-08-14T01:59:26;25.00;66.30
21582;DHT22;10952;50.836;4.348;2022-08-14T02:01:54;25.00;66.60
21582;DHT22;10952;50.836;4.348;2022-08-14T02:04:23;25.00;66.50
21582;DHT22;10952;50.836;4.348;2022-08-14T02:06:49;25.00;66.60
21582;DHT22;10952;50.836;4.348;2022-08-14T02:09:16;24.90;66.90
21582;DHT22;10952;50.836;4.348;2022-08-14T02:11:43;24.80;67.00
21582;DHT22;10952;50.836;4.348;2022-08-14T02:14:11;24.80;67.10
21582;DHT22;10952;50.836;4.348;2022-08-14T02:16:40;24.80;67.30
21582;DHT22;10952;50.836;4.348;2022-08-14T02:19:12;24.80;67.20
21582;DHT22;10952;50.836;4.348;2022-08-14T02:21:40;24.80;67.30
21582;DHT22;10952;50.836;4.348;2022-08-14T02:24:07;24.70;67.60
21582;DHT22;10952;50.836;4.348;2022-08-14T02:26:35;24.60;67.50
21582;DHT22;10952;50.836;4.348;2022-08-14T02:29:13;24.60;67.40
21582;DHT22;10952;50.836;4.348;2022-08-14T02:31:41;24.60;67.40
21582;DHT22;10952;50.836;4.348;2022-08-14T02:34:13;24.70;67.30
21582;DHT22;10952;50.836;4.348;2022-08-14T02:36:43;24.70;67.20
21582;DHT22;10952;50.836;4.348;2022-08-14T02:39:10;24.80;67.00
21582;DHT22;10952;50.836;4.348;2022-08-14T02:41:36;24.80;66.60
21582;DHT22;10952;50.836;4.348;2022-08-14T02:44:05;24.80;66.80
21582;DHT22;10952;50.836;4.348;2022-08-14T02:46:32;24.80;67.00
21582;DHT22;10952;50.836;4.348;2022-08-14T02:48:58;24.80;66.70
21582;DHT22;10952;50.836;4.348;2022-08-14T02:51:25;24.90;66.70
21582;DHT22;10952;50.836;4.348;2022-08-14T02:53:51;24.80;66.70
21582;DHT22;10952;50.836;4.348;2022-08-14T02:56:20;24.80;66.60
21582;DHT22;10952;50.836;4.348;2022-08-14T02:58:48;24.90;66.70
21582;DHT22;10952;50.836;4.348;2022-08-14T03:01:19;24.80;66.40
21582;DHT22;10952;50.836;4.348;2022-08-14T03:03:46;24.80;66.40
21582;DHT22;10952;50.836;4.348;2022-08-14T03:06:13;24.80;66.50
21582;DHT22;10952;50.836;4.348;2022-08-14T03:08:40;24.80;66.50
21582;DHT22;10952;50.836;4.348;2022-08-14T03:11:10;24.90;66.40
21582;DHT22;10952;50.836;4.348;2022-08-14T03:13:42;24.90;66.30
21582;DHT22;10952;50.836;4.348;2022-08-14T03:16:10;24.80;66.30
21582;DHT22;10952;50.836;4.348;2022-08-14T03:18:39;24.80;66.10
21582;DHT22;10952;50.836;4.348;2022-08-14T03:21:08;24.80;65.80
21582;DHT22;10952;50.836;4.348;2022-08-14T03:23:35;24.90;65.90
21582;DHT22;10952;50.836;4.348;2022-08-14T03:26:02;25.00;65.70
21582;DHT22;10952;50.836;4.348;2022-08-14T03:28:29;25.00;65.60
21582;DHT22;10952;50.836;4.348;2022-08-14T03:30:56;24.90;65.90
21582;DHT22;10952;50.836;4.348;2022-08-14T03:33:22;25.00;65.90
21582;DHT22;10952;50.836;4.348;2022-08-14T03:35:49;25.00;65.50
21582;DHT22;10952;50.836;4.348;2022-08-14T03:38:16;24.90;65.60
21582;DHT22;10952;50.836;4.348;2022-08-14T03:40:42;24.90;66.50
21582;DHT22;10952;50.836;4.348;2022-08-14T03:43:09;24.80;66.50
21582;DHT22;10952;50.836;4.348;2022-08-14T03:45:36;24.80;66.70
21582;DHT22;10952;50.836;4.348;2022-08-14T03:48:15;24.80;67.20
21582;DHT22;10952;50.836;4.348;2022-08-14T03:50:50;24.80;67.10
21582;DHT22;10952;50.836;4.348;2022-08-14T03:53:17;24.70;67.20
21582;DHT22;10952;50.836;4.348;2022-08-14T03:55:43;24.60;67.20
21582;DHT22;10952;50.836;4.348;2022-08-14T03:58:10;24.70;67.30
21582;DHT22;10952;50.836;4.348;2022-08-14T04:00:38;24.70;67.40
21582;DHT22;10952;50.836;4.348;2022-08-14T04:03:07;24.70;67.40
21582;DHT22;10952;50.836;4.348;2022-08-14T04:05:34;24.60;67.00
21582;DHT22;10952;50.836;4.348;2022-08-14T04:08:07;24.60;67.00
21582;DHT22;10952;50.836;4.348;2022-08-14T04:10:33;24.60;66.80
21582;DHT22;10952;50.836;4.348;2022-08-14T04:13:00;24.60;67.20
21582;DHT22;10952;50.836;4.348;2022-08-14T04:15:26;24.60;67.10
21582;DHT22;10952;50.836;4.348;2022-08-14T04:17:52;24.50;67.10
21582;DHT22;10952;50.836;4.348;2022-08-14T04:20:19;24.50;67.10
21582;DHT22;10952;50.836;4.348;2022-08-14T04:22:46;24.40;67.30
21582;DHT22;10952;50.836;4.348;2022-08-14T04:25:15;24.40;67.30
21582;DHT22;10952;50.836;4.348;2022-08-14T04:27:40;24.40;67.40
21582;DHT22;10952;50.836;4.348;2022-08-14T04:30:06;24.50;67.50
21582;DHT22;10952;50.836;4.348;2022-08-14T04:32:32;24.40;67.30
21582;DHT22;10952;50.836;4.348;2022-08-14T04:34:59;24.50;67.50
21582;DHT22;10952;50.836;4.348;2022-08-14T04:37:25;24.50;67.80
21582;DHT22;10952;50.836;4.348;2022-08-14T04:40:09;24.40;67.50
21582;DHT22;10952;50.836;4.348;2022-08-14T04:42:54;24.30;67.70
21582;DHT22;10952;50.836;4.348;2022-08-14T04:45:39;24.20;67.80
21582;DHT22;10952;50.836;4.348;2022-08-14T04:48:12;24.10;68.20
21582;DHT22;10952;50.836;4.348;2022-08-14T04:50:44;24.10;68.10
21582;DHT22;10952;50.836;4.348;2022-08-14T04:53:19;24.10;68.00
21582;DHT22;10952;50.836;4.348;2022-08-14T04:55:47;24.20;68.10
21582;DHT22;10952;50.836;4.348;2022-08-14T04:58:23;24.10;68.40
21582;DHT22;10952;50.836;4.348;2022-08-14T05:00:51;24.20;68.30
21582;DHT22;10952;50.836;4.348;2022-08-14T05:03:22;24.20;68.10
21582;DHT22;10952;50.836;4.348;2022-08-14T05:05:54;24.20;68.30
21582;DHT22;10952;50.836;4.348;2022-08-14T05:08:20;24.20;68.40
21582;DHT22;10952;50.836;4.348;2022-08-14T05:10:49;24.20;68.40
21582;DHT22;10952;50.836;4.348;2022-08-14T05:13:23;24.20;69.00
21582;DHT22;10952;50.836;4.348;2022-08-14T05:15:50;24.30;68.80
21582;DHT22;10952;50.836;4.348;2022-08-14T05:18:21;24.30;68.40
21582;DHT22;10952;50.836;4.348;2022-08-14T05:20:50;24.30;68.60
21582;DHT22;10952;50.836;4.348;2022-08-14T05:23:20;24.30;69.50
21582;DHT22;10952;50.836;4.348;2022-08-14T05:25:48;24.30;68.60
21582;DHT22;10952;50.836;4.348;2022-08-14T05:28:17;24.30;68.60
21582;DHT22;10952;50.836;4.348;2022-08-14T05:30:47;24.30;68.30
21582;DHT22;10952;50.836;4.348;2022-08-14T05:33:14;24.20;68.30
21582;DHT22;10952;50.836;4.348;2022-08-14T05:35:41;24.00;69.00
21582;DHT22;10952;50.836;4.348;2022-08-14T05:38:13;24.00;69.00
21582;DHT22;10952;50.836;4.348;2022-08-14T05:40:41;24.00;69.00
21582;DHT22;10952;50.836;4.348;2022-08-14T05:43:07;24.00;69.20
21582;DHT22;10952;50.836;4.348;2022-08-14T05:45:33;23.90;69.70
21582;DHT22;10952;50.836;4.348;2022-08-14T05:48:00;23.90;69.80
21582;DHT22;10952;50.836;4.348;2022-08-14T05:50:26;23.70;70.30
21582;DHT22;10952;50.836;4.348;2022-08-14T05:52:52;23.60;70.70
21582;DHT22;10952;50.836;4.348;2022-08-14T05:55:19;23.70;70.50
21582;DHT22;10952;50.836;4.348;2022-08-14T05:57:53;23.70;70.50
21582;DHT22;10952;50.836;4.348;2022-08-14T06:00:22;23.80;70.70
21582;DHT22;10952;50.836;4.348;2022-08-14T06:02:48;23.90;70.40
21582;DHT22;10952;50.836;4.348;2022-08-14T06:05:13;23.90;70.50
21582;DHT22;10952;50.836;4.348;2022-08-14T06:07:39;24.00;70.50
21582;DHT22;10952;50.836;4.348;2022-08-14T06:10:07;24.10;70.60
21582;DHT22;10952;50.836;4.348;2022-08-14T06:12:37;24.10;70.30
21582;DHT22;10952;50.836;4.348;2022-08-14T06:15:07;24.30;70.20
21582;DHT22;10952;50.836;4.348;2022-08-14T06:17:47;24.40;69.80
21582;DHT22;10952;50.836;4.348;2022-08-14T06:20:14;24.40;69.80
21582;DHT22;10952;50.836;4.348;2022-08-14T06:22:44;24.40;69.40
21582;DHT22;10952;50.836;4.348;2022-08-14T06:25:14;24.40;69.80
21582;DHT22;10952;50.836;4.348;2022-08-14T06:27:44;24.40;69.70
21582;DHT22;10952;50.836;4.348;2022-08-14T06:30:19;24.50;68.10
21582;DHT22;10952;50.836;4.348;2022-08-14T06:32:46;24.60;68.50
21582;DHT22;10952;50.836;4.348;2022-08-14T06:35:12;24.70;67.40
21582;DHT22;10952;50.836;4.348;2022-08-14T06:37:58;24.70;67.50
21582;DHT22;10952;50.836;4.348;2022-08-14T06:40:32;24.70;67.50
21582;DHT22;10952;50.836;4.348;2022-08-14T06:43:06;24.90;67.00
21582;DHT22;10952;50.836;4.348;2022-08-14T06:45:44;25.00;66.70
21582;DHT22;10952;50.836;4.348;2022-08-14T06:48:22;25.00;66.70
21582;DHT22;10952;50.836;4.348;2022-08-14T06:50:50;25.10;66.60
21582;DHT22;10952;50.836;4.348;2022-08-14T06:53:18;25.20;66.50
21582;DHT22;10952;50.836;4.348;2022-08-14T06:55:44;25.20;66.50
21582;DHT22;10952;50.836;4.348;2022-08-14T06:58:15;25.30;66.60
21582;DHT22;10952;50.836;4.348;2022-08-14T07:00:45;25.30;66.70
21582;DHT22;10952;50.836;4.348;2022-08-14T07:03:33;25.30;66.70
21582;DHT22;10952;50.836;4.348;2022-08-14T07:06:17;25.50;66.40
21582;DHT22;10952;50.836;4.348;2022-08-14T07:08:46;25.50;66.30
21582;DHT22;10952;50.836;4.348;2022-08-14T07:11:12;25.60;66.30
21582;DHT22;10952;50.836;4.348;2022-08-14T07:13:40;25.80;66.10
21582;DHT22;10952;50.836;4.348;2022-08-14T07:16:06;25.90;66.00
21582;DHT22;10952;50.836;4.348;2022-08-14T07:18:38;25.90;65.90
21582;DHT22;10952;50.836;4.348;2022-08-14T07:21:07;26.00;65.70
21582;DHT22;10952;50.836;4.348;2022-08-14T07:23:35;26.20;65.60
21582;DHT22;10952;50.836;4.348;2022-08-14T07:26:05;26.30;64.90
21582;DHT22;10952;50.836;4.348;2022-08-14T07:28:38;26.20;64.90
21582;DHT22;10952;50.836;4.348;2022-08-14T07:31:09;26.20;64.90
21582;DHT22;10952;50.836;4.348;2022-08-14T07:33:45;26.30;64.50
21582;DHT22;10952;50.836;4.348;2022-08-14T07:36:13;26.40;64.40
21582;DHT22;10952;50.836;4.348;2022-08-14T07:38:43;26.50;64.00
21582;DHT22;10952;50.836;4.348;2022-08-14T07:41:10;26.70;64.60
21582;DHT22;10952;50.836;4.348;2022-08-14T07:43:36;26.90;64.70
21582;DHT22;10952;50.836;4.348;2022-08-14T07:46:03;27.00;63.90
21582;DHT22;10952;50.836;4.348;2022-08-14T07:48:30;27.10;64.30
21582;DHT22;10952;50.836;4.348;2022-08-14T07:50:56;27.30;63.80
21582;DHT22;10952;50.836;4.348;2022-08-14T07:53:22;27.40;63.00
21582;DHT22;10952;50.836;4.348;2022-08-14T07:55:48;27.60;63.00
21582;DHT22;10952;50.836;4.348;2022-08-14T07:58:15;27.70;62.30
21582;DHT22;10952;50.836;4.348;2022-08-14T08:00:42;27.90;61.40
21582;DHT22;10952;50.836;4.348;2022-08-14T08:03:08;28.00;61.30
21582;DHT22;10952;50.836;4.348;2022-08-14T08:05:35;28.20;61.60
21582;DHT22;10952;50.836;4.348;2022-08-14T08:08:02;28.40;61.10
21582;DHT22;10952;50.836;4.348;2022-08-14T08:10:28;28.70;60.80
21582;DHT22;10952;50.836;4.348;2022-08-14T08:13:09;28.80;61.60
21582;DHT22;10952;50.836;4.348;2022-08-14T08:15:49;29.10;60.70
21582;DHT22;10952;50.836;4.348;2022-08-14T08:18:16;29.30;59.50
21582;DHT22;10952;50.836;4.348;2022-08-14T08:20:44;29.40;59.20
21582;DHT22;10952;50.836;4.348;2022-08-14T08:23:12;29.60;59.40
21582;DHT22;10952;50.836;4.348;2022-08-14T08:25:39;29.80;59.30
21582;DHT22;10952;50.836;4.348;2022-08-14T08:28:26;29.90;59.00
21582;DHT22;10952;50.836;4.348;2022-08-14T08:31:04;29.90;58.80
21582;DHT22;10952;50.836;4.348;2022-08-14T08:33:32;29.80;58.80
21582;DHT22;10952;50.836;4.348;2022-08-14T08:36:05;29.80;58.70
21582;DHT22;10952;50.836;4.348;2022-08-14T08:38:32;30.00;58.30
21582;DHT22;10952;50.836;4.348;2022-08-14T08:40:59;30.10;58.30
21582;DHT22;10952;50.836;4.348;2022-08-14T08:43:34;30.10;57.50
21582;DHT22;10952;50.836;4.348;2022-08-14T08:46:13;30.10;57.40
21582;DHT22;10952;50.836;4.348;2022-08-14T08:48:50;30.00;57.50
21582;DHT22;10952;50.836;4.348;2022-08-14T08:51:34;30.00;57.40
21582;DHT22;10952;50.836;4.348;2022-08-14T08:54:14;29.90;57.60
21582;DHT22;10952;50.836;4.348;2022-08-14T08:56:41;30.00;57.50
21582;DHT22;10952;50.836;4.348;2022-08-14T08:59:29;30.30;57.10
21582;DHT22;10952;50.836;4.348;2022-08-14T09:01:57;30.40;57.00
21582;DHT22;10952;50.836;4.348;2022-08-14T09:04:29;30.40;57.00
21582;DHT22;10952;50.836;4.348;2022-08-14T09:06:55;30.60;57.10
21582;DHT22;10952;50.836;4.348;2022-08-14T09:09:27;30.60;57.10
21582;DHT22;10952;50.836;4.348;2022-08-14T09:11:54;30.70;57.30
21582;DHT22;10952;50.836;4.348;2022-08-14T09:14:24;30.90;57.40
21582;DHT22;10952;50.836;4.348;2022-08-14T09:16:51;31.00;57.20
21582;DHT22;10952;50.836;4.348;2022-08-14T09:19:18;31.10;57.10
21582;DHT22;10952;50.836;4.348;2022-08-14T09:21:44;31.10;56.80
21582;DHT22;10952;50.836;4.348;2022-08-14T09:24:12;31.20;56.70
21582;DHT22;10952;50.836;4.348;2022-08-14T09:26:39;31.30;56.70
21582;DHT22;10952;50.836;4.348;2022-08-14T09:29:07;31.60;56.60
21582;DHT22;10952;50.836;4.348;2022-08-14T09:31:34;31.50;56.60
21582;DHT22;10952;50.836;4.348;2022-08-14T09:34:13;31.80;57.20
21582;DHT22;10952;50.836;4.348;2022-08-14T09:36:55;31.50;55.70
21582;DHT22;10952;50.836;4.348;2022-08-14T09:39:53;31.70;55.50
21582;DHT22;10952;50.836;4.348;2022-08-14T09:42:47;31.80;55.40
21582;DHT22;10952;50.836;4.348;2022-08-14T09:45:20;31.70;55.20
21582;DHT22;10952;50.836;4.348;2022-08-14T09:47:53;31.60;55.60
21582;DHT22;10952;50.836;4.348;2022-08-14T09:50:29;31.80;55.70
21582;DHT22;10952;50.836;4.348;2022-08-14T09:53:00;32.00;55.60
21582;DHT22;10952;50.836;4.348;2022-08-14T09:55:28;32.00;55.80
21582;DHT22;10952;50.836;4.348;2022-08-14T09:58:15;31.90;56.10
21582;DHT22;10952;50.836;4.348;2022-08-14T10:00:45;31.60;56.40
21582;DHT22;10952;50.836;4.348;2022-08-14T10:03:11;31.70;56.80
21582;DHT22;10952;50.836;4.348;2022-08-14T10:05:38;31.90;57.00
21582;DHT22;10952;50.836;4.348;2022-08-14T10:08:17;32.00;56.30
21582;DHT22;10952;50.836;4.348;2022-08-14T10:10:44;32.20;56.60
21582;DHT22;10952;50.836;4.348;2022-08-14T10:13:22;32.20;56.40
21582;DHT22;10952;50.836;4.348;2022-08-14T10:15:48;32.50;56.30
21582;DHT22;10952;50.836;4.348;2022-08-14T10:18:17;32.80;56.50
21582;DHT22;10952;50.836;4.348;2022-08-14T10:20:53;33.30;55.40
21582;DHT22;10952;50.836;4.348;2022-08-14T10:23:25;33.50;53.70
21582;DHT22;10952;50.836;4.348;2022-08-14T10:25:57;33.30;54.40
21582;DHT22;10952;50.836;4.348;2022-08-14T10:28:23;33.60;53.90
21582;DHT22;10952;50.836;4.348;2022-08-14T10:30:50;35.00;52.60
21582;DHT22;10952;50.836;4.348;2022-08-14T10:33:29;37.30;50.70
21582;DHT22;10952;50.836;4.348;2022-08-14T10:35:56;39.50;48.50
21582;DHT22;10952;50.836;4.348;2022-08-14T10:38:29;41.00;46.20
21582;DHT22;10952;50.836;4.348;2022-08-14T10:41:11;41.30;45.40
21582;DHT22;10952;50.836;4.348;2022-08-14T10:43:39;42.00;45.10
21582;DHT22;10952;50.836;4.348;2022-08-14T10:46:15;42.60;44.40
21582;DHT22;10952;50.836;4.348;2022-08-14T10:48:57;42.80;43.90
21582;DHT22;10952;50.836;4.348;2022-08-14T10:51:26;43.60;43.80
21582;DHT22;10952;50.836;4.348;2022-08-14T10:53:56;44.30;42.00
21582;DHT22;10952;50.836;4.348;2022-08-14T10:56:30;44.80;41.60
21582;DHT22;10952;50.836;4.348;2022-08-14T10:59:06;44.40;41.60
21582;DHT22;10952;50.836;4.348;2022-08-14T11:01:34;43.70;42.10
21582;DHT22;10952;50.836;4.348;2022-08-14T11:04:00;45.10;41.40
21582;DHT22;10952;50.836;4.348;2022-08-14T11:06:27;44.50;40.90
21582;DHT22;10952;50.836;4.348;2022-08-14T11:08:54;43.50;42.30
21582;DHT22;10952;50.836;4.348;2022-08-14T11:11:22;44.00;41.70
21582;DHT22;10952;50.836;4.348;2022-08-14T11:13:49;44.40;41.00
21582;DHT22;10952;50.836;4.348;2022-08-14T11:16:16;44.00;41.20
21582;DHT22;10952;50.836;4.348;2022-08-14T11:18:45;44.90;40.60
21582;DHT22;10952;50.836;4.348;2022-08-14T11:21:14;45.30;40.20
21582;DHT22;10952;50.836;4.348;2022-08-14T11:23:43;44.70;40.10
21582;DHT22;10952;50.836;4.348;2022-08-14T11:26:11;44.60;40.50
21582;DHT22;10952;50.836;4.348;2022-08-14T11:28:39;43.20;41.20
21582;DHT22;10952;50.836;4.348;2022-08-14T11:31:08;42.40;42.20
21582;DHT22;10952;50.836;4.348;2022-08-14T11:33:35;41.10;43.10
21582;DHT22;10952;50.836;4.348;2022-08-14T11:36:04;40.10;43.80
21582;DHT22;10952;50.836;4.348;2022-08-14T11:38:42;39.80;43.50
21582;DHT22;10952;50.836;4.348;2022-08-14T11:41:10;40.00;42.90
21582;DHT22;10952;50.836;4.348;2022-08-14T11:43:47;40.00;42.90
21582;DHT22;10952;50.836;4.348;2022-08-14T11:46:13;40.40;42.90
21582;DHT22;10952;50.836;4.348;2022-08-14T11:48:51;40.60;42.60
21582;DHT22;10952;50.836;4.348;2022-08-14T11:51:20;41.60;42.50
21582;DHT22;10952;50.836;4.348;2022-08-14T11:53:54;41.80;41.80
21582;DHT22;10952;50.836;4.348;2022-08-14T11:56:20;41.80;42.00
21582;DHT22;10952;50.836;4.348;2022-08-14T11:58:50;42.00;41.80
21582;DHT22;10952;50.836;4.348;2022-08-14T12:01:24;41.90;41.70
21582;DHT22;10952;50.836;4.348;2022-08-14T12:03:54;41.30;42.00
21582;DHT22;10952;50.836;4.348;2022-08-14T12:06:21;39.40;43.70
21582;DHT22;10952;50.836;4.348;2022-08-14T12:08:49;39.10;43.90
21582;DHT22;10952;50.836;4.348;2022-08-14T12:11:19;38.50;43.80
21582;DHT22;10952;50.836;4.348;2022-08-14T12:13:45;38.20;43.90
21582;DHT22;10952;50.836;4.348;2022-08-14T12:16:12;37.80;44.50
21582;DHT22;10952;50.836;4.348;2022-08-14T12:18:42;38.10;44.00
21582;DHT22;10952;50.836;4.348;2022-08-14T12:23:36;39.10;43.20
21582;DHT22;10952;50.836;4.348;2022-08-14T12:26:08;38.40;43.60
21582;DHT22;10952;50.836;4.348;2022-08-14T12:28:35;39.00;43.10
21582;DHT22;10952;50.836;4.348;2022-08-14T12:31:14;39.00;42.90
21582;DHT22;10952;50.836;4.348;2022-08-14T12:33:41;39.20;43.10
21582;DHT22;10952;50.836;4.348;2022-08-14T12:36:08;39.10;43.00
21582;DHT22;10952;50.836;4.348;2022-08-14T12:38:47;39.30;42.40
21582;DHT22;10952;50.836;4.348;2022-08-14T12:41:20;39.40;42.20
21582;DHT22;10952;50.836;4.348;2022-08-14T12:43:54;39.80;41.70
21582;DHT22;10952;50.836;4.348;2022-08-14T12:46:23;40.10;41.60
21582;DHT22;10952;50.836;4.348;2022-08-14T12:48:49;39.60;41.50
21582;DHT22;10952;50.836;4.348;2022-08-14T12:51:18;39.10;42.00
21582;DHT22;10952;50.836;4.348;2022-08-14T12:53:47;38.20;42.60
21582;DHT22;10952;50.836;4.348;2022-08-14T12:56:20;38.20;42.70
21582;DHT22;10952;50.836;4.348;2022-08-14T12:58:51;37.10;43.60
21582;DHT22;10952;50.836;4.348;2022-08-14T13:01:27;36.40;44.50
21582;DHT22;10952;50.836;4.348;2022-08-14T13:04:04;36.30;45.40
21582;DHT22;10952;50.836;4.348;2022-08-14T13:06:33;36.10;44.70
21582;DHT22;10952;50.836;4.348;2022-08-14T13:08:59;35.60;46.30
21582;DHT22;10952;50.836;4.348;2022-08-14T13:11:27;35.80;45.10
21582;DHT22;10952;50.836;4.348;2022-08-14T13:13:58;35.80;45.40
21582;DHT22;10952;50.836;4.348;2022-08-14T13:16:24;35.70;45.80
21582;DHT22;10952;50.836;4.348;2022-08-14T13:18:55;35.60;46.60
21582;DHT22;10952;50.836;4.348;2022-08-14T13:21:24;35.70;46.20
21582;DHT22;10952;50.836;4.348;2022-08-14T13:23:51;35.80;46.40
21582;DHT22;10952;50.836;4.348;2022-08-14T13:26:17;35.50;46.40
21582;DHT22;10952;50.836;4.348;2022-08-14T13:28:45;35.20;46.90
21582;DHT22;10952;50.836;4.348;2022-08-14T13:31:12;35.30;47.20
21582;DHT22;10952;50.836;4.348;2022-08-14T13:33:39;35.60;46.20
21582;DHT22;10952;50.836;4.348;2022-08-14T13:36:06;35.80;46.60
21582;DHT22;10952;50.836;4.348;2022-08-14T13:38:32;36.00;46.50
21582;DHT22;10952;50.836;4.348;2022-08-14T13:40:57;35.80;46.50
21582;DHT22;10952;50.836;4.348;2022-08-14T13:43:23;35.80;46.30
21582;DHT22;10952;50.836;4.348;2022-08-14T13:45:50;35.80;46.40
21582;DHT22;10952;50.836;4.348;2022-08-14T13:48:16;35.60;46.50
21582;DHT22;10952;50.836;4.348;2022-08-14T13:50:43;35.40;46.80
21582;DHT22;10952;50.836;4.348;2022-08-14T13:53:11;35.00;47.20
21582;DHT22;10952;50.836;4.348;2022-08-14T13:55:39;35.10;47.20
21582;DHT22;10952;50.836;4.348;2022-08-14T13:58:07;35.40;47.00
21582;DHT22;10952;50.836;4.348;2022-08-14T14:00:34;35.40;46.60
21582;DHT22;10952;50.836;4.348;2022-08-14T14:03:03;35.30;46.00
21582;DHT22;10952;50.836;4.348;2022-08-14T14:05:30;35.10;46.30
21582;DHT22;10952;50.836;4.348;2022-08-14T14:08:00;35.10;46.20
21582;DHT22;10952;50.836;4.348;2022-08-14T14:10:26;35.20;46.20
21582;DHT22;10952;50.836;4.348;2022-08-14T14:12:51;35.30;46.40
21582;DHT22;10952;50.836;4.348;2022-08-14T14:15:19;35.20;46.90
21582;DHT22;10952;50.836;4.348;2022-08-14T14:17:45;35.30;46.30
21582;DHT22;10952;50.836;4.348;2022-08-14T14:20:21;35.00;45.80
21582;DHT22;10952;50.836;4.348;2022-08-14T14:22:51;34.70;46.30
21582;DHT22;10952;50.836;4.348;2022-08-14T14:25:18;34.60;46.40
21582;DHT22;10952;50.836;4.348;2022-08-14T14:27:46;34.40;46.30
21582;DHT22;10952;50.836;4.348;2022-08-14T14:30:16;34.30;46.70
21582;DHT22;10952;50.836;4.348;2022-08-14T14:32:46;34.40;46.10
21582;DHT22;10952;50.836;4.348;2022-08-14T14:35:14;34.80;46.40
21582;DHT22;10952;50.836;4.348;2022-08-14T14:37:42;34.80;46.30
21582;DHT22;10952;50.836;4.348;2022-08-14T14:40:09;34.50;46.60
21582;DHT22;10952;50.836;4.348;2022-08-14T14:42:44;34.50;46.50
21582;DHT22;10952;50.836;4.348;2022-08-14T14:45:12;34.70;46.90
21582;DHT22;10952;50.836;4.348;2022-08-14T14:47:43;35.00;47.50
21582;DHT22;10952;50.836;4.348;2022-08-14T14:50:10;35.00;46.50
21582;DHT22;10952;50.836;4.348;2022-08-14T14:52:37;35.10;46.60
21582;DHT22;10952;50.836;4.348;2022-08-14T14:55:05;34.90;47.00
21582;DHT22;10952;50.836;4.348;2022-08-14T14:57:31;34.70;47.10
21582;DHT22;10952;50.836;4.348;2022-08-14T14:59:57;34.30;47.50
21582;DHT22;10952;50.836;4.348;2022-08-14T15:02:38;34.40;47.50
21582;DHT22;10952;50.836;4.348;2022-08-14T15:05:06;34.40;47.60
21582;DHT22;10952;50.836;4.348;2022-08-14T15:07:35;34.30;47.90
21582;DHT22;10952;50.836;4.348;2022-08-14T15:10:04;34.20;47.90
21582;DHT22;10952;50.836;4.348;2022-08-14T15:12:29;34.00;49.00
21582;DHT22;10952;50.836;4.348;2022-08-14T15:14:56;34.10;48.40
21582;DHT22;10952;50.836;4.348;2022-08-14T15:17:22;34.00;48.50
21582;DHT22;10952;50.836;4.348;2022-08-14T15:19:48;33.80;48.40
21582;DHT22;10952;50.836;4.348;2022-08-14T15:22:14;33.70;48.50
21582;DHT22;10952;50.836;4.348;2022-08-14T15:24:40;34.00;48.60
21582;DHT22;10952;50.836;4.348;2022-08-14T15:27:06;34.10;48.10
21582;DHT22;10952;50.836;4.348;2022-08-14T15:29:33;34.10;48.30
21582;DHT22;10952;50.836;4.348;2022-08-14T15:32:08;33.80;49.30
21582;DHT22;10952;50.836;4.348;2022-08-14T15:34:35;34.00;48.20
21582;DHT22;10952;50.836;4.348;2022-08-14T15:37:06;34.00;47.80
21582;DHT22;10952;50.836;4.348;2022-08-14T15:39:32;33.90;47.70
21582;DHT22;10952;50.836;4.348;2022-08-14T15:42:00;33.90;48.60
21582;DHT22;10952;50.836;4.348;2022-08-14T15:44:29;34.00;48.60
21582;DHT22;10952;50.836;4.348;2022-08-14T15:46:55;33.90;48.50